sensor_id;sensor_type;location;lat;lon;timestamp;pressure;altitude;pressure_sealevel;temperature;humidity
74613;BME280;63119;51.788;8.824;2023-04-24T00:00:11;98614.72;;;12.92;64.50
74613;BME280;63119;51.788;8.824;2023-04-24T00:02:40;98608.59;;;12.92;65.02
74613;BME280;63119;51.788;8.824;2023-04-24T00:05:06;98604.59;;;12.70;65.40
74613;BME280;63119;51.788;8.824;2023-04-24T00:07:32;98610.09;;;12.77;66.06
74613;BME280;63119;51.788;8.824;2023-04-24T00:09:58;98607.31;;;12.78;65.39
74613;BME280;63119;51.788;8.824;2023-04-24T00:12:23;98605.31;;;12.80;65.19
74613;BME280;63119;51.788;8.824;2023-04-24T00:14:49;98596.69;;;12.78;65.24
74613;BME280;63119;51.788;8.824;2023-04-24T00:17:14;98597.59;;;12.69;65.71
74613;BME280;63119;51.788;8.824;2023-04-24T00:19:40;98600.00;;;12.63;65.65
74613;BME280;63119;51.788;8.824;2023-04-24T00:22:05;98595.78;;;12.52;65.69
74613;BME280;63119;51.788;8.824;2023-04-24T00:24:31;98596.75;;;12.51;65.31
74613;BME280;63119;51.788;8.824;2023-04-24T00:26:56;98593.94;;;12.52;65.47
74613;BME280;63119;51.788;8.824;2023-04-24T00:29:21;98601.47;;;12.57;65.79
74613;BME280;63119;51.788;8.824;2023-04-24T00:31:46;98597.13;;;12.56;65.94
74613;BME280;63119;51.788;8.824;2023-04-24T00:34:12;98591.75;;;12.48;66.25
74613;BME280;63119;51.788;8.824;2023-04-24T00:36:37;98590.38;;;12.44;66.58
74613;BME280;63119;51.788;8.824;2023-04-24T00:39:03;98599.22;;;12.35;66.91
74613;BME280;63119;51.788;8.824;2023-04-24T00:41:28;98596.19;;;12.30;66.31
74613;BME280;63119;51.788;8.824;2023-04-24T00:43:54;98598.06;;;12.37;65.96
74613;BME280;63119;51.788;8.824;2023-04-24T00:46:20;98592.63;;;12.21;66.99
74613;BME280;63119;51.788;8.824;2023-04-24T00:48:46;98592.69;;;12.29;66.61
74613;BME280;63119;51.788;8.824;2023-04-24T00:51:11;98588.03;;;12.14;66.94
74613;BME280;63119;51.788;8.824;2023-04-24T00:53:36;98588.25;;;12.02;67.35
74613;BME280;63119;51.788;8.824;2023-04-24T00:56:02;98583.94;;;11.92;68.00
74613;BME280;63119;51.788;8.824;2023-04-24T00:58:28;98579.50;;;11.92;67.62
74613;BME280;63119;51.788;8.824;2023-04-24T01:00:54;98584.78;;;11.92;68.15
74613;BME280;63119;51.788;8.824;2023-04-24T01:03:22;98581.38;;;11.82;68.54
74613;BME280;63119;51.788;8.824;2023-04-24T01:05:49;98587.25;;;11.67;69.57
74613;BME280;63119;51.788;8.824;2023-04-24T01:08:15;98585.72;;;11.64;69.53
74613;BME280;63119;51.788;8.824;2023-04-24T01:10:41;98590.88;;;11.75;69.30
74613;BME280;63119;51.788;8.824;2023-04-24T01:13:07;98595.63;;;11.62;70.51
74613;BME280;63119;51.788;8.824;2023-04-24T01:15:33;98582.63;;;11.69;69.45
74613;BME280;63119;51.788;8.824;2023-04-24T01:17:58;98583.13;;;11.55;69.50
74613;BME280;63119;51.788;8.824;2023-04-24T01:20:24;98572.91;;;11.60;69.75
74613;BME280;63119;51.788;8.824;2023-04-24T01:22:51;98580.81;;;11.69;69.24
74613;BME280;63119;51.788;8.824;2023-04-24T01:25:16;98580.69;;;11.71;69.20
74613;BME280;63119;51.788;8.824;2023-04-24T01:27:41;98578.47;;;11.66;69.63
74613;BME280;63119;51.788;8.824;2023-04-24T01:30:08;98578.00;;;11.80;68.41
74613;BME280;63119;51.788;8.824;2023-04-24T01:32:34;98576.38;;;11.79;68.18
74613;BME280;63119;51.788;8.824;2023-04-24T01:34:59;98581.88;;;11.86;68.78
74613;BME280;63119;51.788;8.824;2023-04-24T01:37:25;98580.63;;;11.90;67.72
74613;BME280;63119;51.788;8.824;2023-04-24T01:39:51;98577.94;;;11.99;66.60
74613;BME280;63119;51.788;8.824;2023-04-24T01:42:17;98581.97;;;12.03;67.48
74613;BME280;63119;51.788;8.824;2023-04-24T01:44:42;98579.75;;;11.99;66.89
74613;BME280;63119;51.788;8.824;2023-04-24T01:47:08;98578.78;;;12.00;67.49
74613;BME280;63119;51.788;8.824;2023-04-24T01:49:33;98578.03;;;12.07;67.57
74613;BME280;63119;51.788;8.824;2023-04-24T01:51:58;98582.59;;;12.15;67.10
74613;BME280;63119;51.788;8.824;2023-04-24T01:54:24;98581.75;;;12.15;67.26
74613;BME280;63119;51.788;8.824;2023-04-24T01:56:49;98580.19;;;11.94;66.98
74613;BME280;63119;51.788;8.824;2023-04-24T01:59:15;98579.50;;;11.92;67.58
74613;BME280;63119;51.788;8.824;2023-04-24T02:01:42;98573.59;;;11.98;67.01
74613;BME280;63119;51.788;8.824;2023-04-24T02:04:08;98571.53;;;11.92;67.33
74613;BME280;63119;51.788;8.824;2023-04-24T02:06:33;98572.53;;;11.91;66.88
74613;BME280;63119;51.788;8.824;2023-04-24T02:08:59;98565.69;;;11.89;67.13
74613;BME280;63119;51.788;8.824;2023-04-24T02:11:25;98569.38;;;11.78;67.59
74613;BME280;63119;51.788;8.824;2023-04-24T02:13:51;98563.53;;;11.75;67.51
74613;BME280;63119;51.788;8.824;2023-04-24T02:16:17;98565.63;;;11.62;67.49
74613;BME280;63119;51.788;8.824;2023-04-24T02:18:42;98557.09;;;11.77;66.87
74613;BME280;63119;51.788;8.824;2023-04-24T02:21:08;98555.16;;;11.79;66.48
74613;BME280;63119;51.788;8.824;2023-04-24T02:23:34;98557.22;;;11.85;67.30
74613;BME280;63119;51.788;8.824;2023-04-24T02:25:59;98551.50;;;11.80;66.98
74613;BME280;63119;51.788;8.824;2023-04-24T02:28:24;98550.00;;;11.78;67.43
74613;BME280;63119;51.788;8.824;2023-04-24T02:30:50;98555.59;;;11.75;67.36
74613;BME280;63119;51.788;8.824;2023-04-24T02:33:16;98552.66;;;11.68;66.88
74613;BME280;63119;51.788;8.824;2023-04-24T02:35:41;98554.03;;;11.82;66.88
74613;BME280;63119;51.788;8.824;2023-04-24T02:38:06;98560.75;;;11.76;67.43
74613;BME280;63119;51.788;8.824;2023-04-24T02:40:32;98560.75;;;11.76;67.47
74613;BME280;63119;51.788;8.824;2023-04-24T02:42:57;98556.22;;;11.86;67.21
74613;BME280;63119;51.788;8.824;2023-04-24T02:45:22;98553.47;;;11.78;66.78
74613;BME280;63119;51.788;8.824;2023-04-24T02:47:47;98549.31;;;11.66;67.61
74613;BME280;63119;51.788;8.824;2023-04-24T02:50:13;98536.75;;;11.68;67.46
74613;BME280;63119;51.788;8.824;2023-04-24T02:52:38;98548.19;;;11.78;67.94
74613;BME280;63119;51.788;8.824;2023-04-24T02:55:03;98545.38;;;11.80;68.00
74613;BME280;63119;51.788;8.824;2023-04-24T02:57:29;98551.81;;;11.77;67.68
74613;BME280;63119;51.788;8.824;2023-04-24T02:59:54;98542.13;;;11.86;67.35
74613;BME280;63119;51.788;8.824;2023-04-24T03:02:20;98544.16;;;11.74;68.03
74613;BME280;63119;51.788;8.824;2023-04-24T03:04:45;98537.19;;;11.73;68.13
74613;BME280;63119;51.788;8.824;2023-04-24T03:07:12;98542.97;;;11.86;67.26
74613;BME280;63119;51.788;8.824;2023-04-24T03:09:38;98546.50;;;11.77;68.52
74613;BME280;63119;51.788;8.824;2023-04-24T03:12:03;98550.97;;;11.77;68.11
74613;BME280;63119;51.788;8.824;2023-04-24T03:14:28;98546.38;;;11.69;69.20
74613;BME280;63119;51.788;8.824;2023-04-24T03:16:56;98545.16;;;11.73;68.68
74613;BME280;63119;51.788;8.824;2023-04-24T03:19:21;98549.03;;;11.69;69.44
74613;BME280;63119;51.788;8.824;2023-04-24T03:21:46;98552.81;;;11.67;68.90
74613;BME280;63119;51.788;8.824;2023-04-24T03:24:12;98551.81;;;11.77;68.90
74613;BME280;63119;51.788;8.824;2023-04-24T03:26:37;98544.28;;;11.82;68.93
74613;BME280;63119;51.788;8.824;2023-04-24T03:29:02;98550.84;;;11.78;68.55
74613;BME280;63119;51.788;8.824;2023-04-24T03:31:27;98548.19;;;11.69;69.15
74613;BME280;63119;51.788;8.824;2023-04-24T03:33:53;98549.41;;;11.84;69.67
74613;BME280;63119;51.788;8.824;2023-04-24T03:36:18;98550.63;;;11.89;68.81
74613;BME280;63119;51.788;8.824;2023-04-24T03:38:44;98543.75;;;11.96;68.82
74613;BME280;63119;51.788;8.824;2023-04-24T03:41:10;98547.94;;;11.99;68.35
74613;BME280;63119;51.788;8.824;2023-04-24T03:43:35;98546.78;;;12.01;68.14
74613;BME280;63119;51.788;8.824;2023-04-24T03:46:01;98548.19;;;12.05;68.50
74613;BME280;63119;51.788;8.824;2023-04-24T03:48:26;98543.84;;;12.04;68.84
74613;BME280;63119;51.788;8.824;2023-04-24T03:50:51;98543.72;;;12.06;69.65
74613;BME280;63119;51.788;8.824;2023-04-24T03:53:17;98538.72;;;12.03;69.14
74613;BME280;63119;51.788;8.824;2023-04-24T03:55:42;98539.94;;;12.09;69.28
74613;BME280;63119;51.788;8.824;2023-04-24T03:58:07;98534.31;;;12.12;69.40
74613;BME280;63119;51.788;8.824;2023-04-24T04:00:32;98531.59;;;12.03;69.73
74613;BME280;63119;51.788;8.824;2023-04-24T04:02:58;98533.53;;;12.01;69.62
74613;BME280;63119;51.788;8.824;2023-04-24T04:05:23;98534.84;;;11.97;70.04
74613;BME280;63119;51.788;8.824;2023-04-24T04:07:49;98535.75;;;12.06;70.56
74613;BME280;63119;51.788;8.824;2023-04-24T04:10:14;98536.78;;;11.95;70.28
74613;BME280;63119;51.788;8.824;2023-04-24T04:12:39;98539.13;;;11.98;70.13
74613;BME280;63119;51.788;8.824;2023-04-24T04:15:05;98543.09;;;11.94;70.80
74613;BME280;63119;51.788;8.824;2023-04-24T04:17:31;98545.63;;;11.86;72.62
74613;BME280;63119;51.788;8.824;2023-04-24T04:19:57;98556.84;;;11.61;74.59
74613;BME280;63119;51.788;8.824;2023-04-24T04:22:22;98558.53;;;11.72;74.30
74613;BME280;63119;51.788;8.824;2023-04-24T04:24:47;98559.78;;;11.58;75.96
74613;BME280;63119;51.788;8.824;2023-04-24T04:27:13;98558.72;;;11.51;76.55
74613;BME280;63119;51.788;8.824;2023-04-24T04:29:38;98573.75;;;11.60;76.47
74613;BME280;63119;51.788;8.824;2023-04-24T04:32:05;98576.84;;;11.46;75.93
74613;BME280;63119;51.788;8.824;2023-04-24T04:34:31;98583.41;;;11.42;76.64
74613;BME280;63119;51.788;8.824;2023-04-24T04:36:56;98567.69;;;11.31;77.64
74613;BME280;63119;51.788;8.824;2023-04-24T04:39:24;98582.19;;;11.27;77.90
74613;BME280;63119;51.788;8.824;2023-04-24T04:41:49;98565.94;;;11.12;77.88
74613;BME280;63119;51.788;8.824;2023-04-24T04:44:15;98572.06;;;11.03;78.47
74613;BME280;63119;51.788;8.824;2023-04-24T04:46:40;98580.69;;;11.15;77.71
74613;BME280;63119;51.788;8.824;2023-04-24T04:49:06;98579.84;;;11.14;77.81
74613;BME280;63119;51.788;8.824;2023-04-24T04:51:33;98585.72;;;11.18;78.26
74613;BME280;63119;51.788;8.824;2023-04-24T04:53:58;98577.03;;;11.16;77.49
74613;BME280;63119;51.788;8.824;2023-04-24T04:56:23;98585.72;;;11.18;77.25
74613;BME280;63119;51.788;8.824;2023-04-24T04:58:49;98585.00;;;11.16;77.01
74613;BME280;63119;51.788;8.824;2023-04-24T05:01:15;98592.53;;;11.11;77.34
74613;BME280;63119;51.788;8.824;2023-04-24T05:03:40;98588.34;;;11.18;77.38
74613;BME280;63119;51.788;8.824;2023-04-24T05:06:05;98596.03;;;11.11;75.88
74613;BME280;63119;51.788;8.824;2023-04-24T05:08:31;98602.00;;;11.04;75.76
74613;BME280;63119;51.788;8.824;2023-04-24T05:10:56;98611.06;;;11.11;76.23
74613;BME280;63119;51.788;8.824;2023-04-24T05:13:21;98606.50;;;11.03;75.65
74613;BME280;63119;51.788;8.824;2023-04-24T05:15:47;98608.41;;;11.01;75.26
74613;BME280;63119;51.788;8.824;2023-04-24T05:18:12;98609.66;;;11.07;75.02
74613;BME280;63119;51.788;8.824;2023-04-24T05:20:37;98613.31;;;10.96;75.18
74613;BME280;63119;51.788;8.824;2023-04-24T05:23:02;98612.06;;;11.00;75.46
74613;BME280;63119;51.788;8.824;2023-04-24T05:25:28;98614.16;;;11.06;74.19
74613;BME280;63119;51.788;8.824;2023-04-24T05:27:53;98608.69;;;11.08;72.80
74613;BME280;63119;51.788;8.824;2023-04-24T05:30:19;98619.16;;;11.00;72.18
74613;BME280;63119;51.788;8.824;2023-04-24T05:32:44;98617.88;;;11.04;71.98
74613;BME280;63119;51.788;8.824;2023-04-24T05:35:10;98619.72;;;11.03;72.64
74613;BME280;63119;51.788;8.824;2023-04-24T05:37:35;98626.38;;;10.97;71.90
74613;BME280;63119;51.788;8.824;2023-04-24T05:40:00;98631.41;;;11.01;71.57
74613;BME280;63119;51.788;8.824;2023-04-24T05:42:25;98637.13;;;11.06;71.66
74613;BME280;63119;51.788;8.824;2023-04-24T05:44:51;98630.44;;;11.11;71.54
74613;BME280;63119;51.788;8.824;2023-04-24T05:47:16;98642.00;;;11.20;70.90
74613;BME280;63119;51.788;8.824;2023-04-24T05:49:41;98642.28;;;11.17;69.91
74613;BME280;63119;51.788;8.824;2023-04-24T05:52:06;98634.59;;;11.14;70.30
74613;BME280;63119;51.788;8.824;2023-04-24T05:54:34;98642.66;;;11.31;69.85
74613;BME280;63119;51.788;8.824;2023-04-24T05:56:59;98636.97;;;11.17;68.81
74613;BME280;63119;51.788;8.824;2023-04-24T05:59:26;98651.19;;;11.16;68.12
74613;BME280;63119;51.788;8.824;2023-04-24T06:01:51;98649.53;;;11.15;69.41
74613;BME280;63119;51.788;8.824;2023-04-24T06:04:16;98637.25;;;11.23;68.49
74613;BME280;63119;51.788;8.824;2023-04-24T06:06:42;98646.16;;;11.32;66.79
74613;BME280;63119;51.788;8.824;2023-04-24T06:09:07;98641.72;;;11.23;67.66
74613;BME280;63119;51.788;8.824;2023-04-24T06:11:32;98648.13;;;11.30;67.21
74613;BME280;63119;51.788;8.824;2023-04-24T06:13:57;98644.84;;;11.65;66.12
74613;BME280;63119;51.788;8.824;2023-04-24T06:16:23;98638.09;;;12.26;63.32
74613;BME280;63119;51.788;8.824;2023-04-24T06:18:48;98637.44;;;12.42;62.40
74613;BME280;63119;51.788;8.824;2023-04-24T06:21:17;98639.59;;;12.29;62.81
74613;BME280;63119;51.788;8.824;2023-04-24T06:23:42;98638.97;;;12.62;62.57
74613;BME280;63119;51.788;8.824;2023-04-24T06:26:08;98631.81;;;12.90;61.20
74613;BME280;63119;51.788;8.824;2023-04-24T06:28:33;98645.53;;;12.40;62.46
74613;BME280;63119;51.788;8.824;2023-04-24T06:30:58;98645.94;;;12.18;62.75
74613;BME280;63119;51.788;8.824;2023-04-24T06:33:23;98645.59;;;12.03;62.71
74613;BME280;63119;51.788;8.824;2023-04-24T06:35:49;98647.41;;;12.03;63.11
74613;BME280;63119;51.788;8.824;2023-04-24T06:38:14;98642.47;;;11.71;63.62
74613;BME280;63119;51.788;8.824;2023-04-24T06:40:40;98647.06;;;11.69;63.86
74613;BME280;63119;51.788;8.824;2023-04-24T06:43:06;98650.00;;;11.76;63.72
74613;BME280;63119;51.788;8.824;2023-04-24T06:45:31;98642.34;;;11.63;64.60
74613;BME280;63119;51.788;8.824;2023-04-24T06:47:56;98652.00;;;11.55;65.64
74613;BME280;63119;51.788;8.824;2023-04-24T06:50:24;98658.09;;;11.55;65.14
74613;BME280;63119;51.788;8.824;2023-04-24T06:52:49;98657.88;;;11.39;64.73
74613;BME280;63119;51.788;8.824;2023-04-24T06:55:14;98662.03;;;11.32;64.82
74613;BME280;63119;51.788;8.824;2023-04-24T06:57:41;98660.91;;;11.34;64.13
74613;BME280;63119;51.788;8.824;2023-04-24T07:00:07;98670.66;;;11.34;64.90
74613;BME280;63119;51.788;8.824;2023-04-24T07:02:34;98666.94;;;11.27;64.46
74613;BME280;63119;51.788;8.824;2023-04-24T07:05:00;98667.50;;;11.30;63.75
74613;BME280;63119;51.788;8.824;2023-04-24T07:07:26;98673.63;;;11.21;64.10
74613;BME280;63119;51.788;8.824;2023-04-24T07:09:51;98669.03;;;11.33;63.19
74613;BME280;63119;51.788;8.824;2023-04-24T07:12:16;98666.38;;;11.33;63.30
74613;BME280;63119;51.788;8.824;2023-04-24T07:14:42;98680.47;;;11.24;63.41
74613;BME280;63119;51.788;8.824;2023-04-24T07:17:07;98673.47;;;11.23;63.54
74613;BME280;63119;51.788;8.824;2023-04-24T07:19:33;98669.03;;;11.14;63.76
74613;BME280;63119;51.788;8.824;2023-04-24T07:22:00;98677.13;;;11.12;63.18
74613;BME280;63119;51.788;8.824;2023-04-24T07:24:25;98671.38;;;11.17;63.64
74613;BME280;63119;51.788;8.824;2023-04-24T07:26:51;98676.28;;;11.21;62.18
74613;BME280;63119;51.788;8.824;2023-04-24T07:29:17;98678.22;;;11.29;63.73
74613;BME280;63119;51.788;8.824;2023-04-24T07:31:42;98675.00;;;11.44;62.85
74613;BME280;63119;51.788;8.824;2023-04-24T07:34:07;98671.19;;;11.66;62.10
74613;BME280;63119;51.788;8.824;2023-04-24T07:36:33;98669.25;;;11.59;62.18
74613;BME280;63119;51.788;8.824;2023-04-24T07:38:58;98674.13;;;11.63;62.32
74613;BME280;63119;51.788;8.824;2023-04-24T07:41:23;98674.81;;;11.65;62.18
74613;BME280;63119;51.788;8.824;2023-04-24T07:43:49;98679.28;;;11.55;63.01
74613;BME280;63119;51.788;8.824;2023-04-24T07:46:14;98686.84;;;11.50;62.62
74613;BME280;63119;51.788;8.824;2023-04-24T07:48:40;98686.56;;;11.53;62.09
74613;BME280;63119;51.788;8.824;2023-04-24T07:51:05;98688.34;;;11.62;62.00
74613;BME280;63119;51.788;8.824;2023-04-24T07:53:30;98682.09;;;11.73;62.69
74613;BME280;63119;51.788;8.824;2023-04-24T07:55:56;98685.41;;;11.84;61.20
74613;BME280;63119;51.788;8.824;2023-04-24T07:58:21;98681.22;;;11.91;61.19
74613;BME280;63119;51.788;8.824;2023-04-24T08:00:47;98678.34;;;12.12;61.22
74613;BME280;63119;51.788;8.824;2023-04-24T08:03:12;98681.47;;;12.80;58.73
74613;BME280;63119;51.788;8.824;2023-04-24T08:05:37;98682.91;;;13.19;58.52
74613;BME280;63119;51.788;8.824;2023-04-24T08:08:03;98684.53;;;13.02;58.60
74613;BME280;63119;51.788;8.824;2023-04-24T08:10:28;98681.44;;;12.62;58.12
74613;BME280;63119;51.788;8.824;2023-04-24T08:12:53;98683.22;;;12.44;59.13
74613;BME280;63119;51.788;8.824;2023-04-24T08:15:20;98689.63;;;12.51;59.56
74613;BME280;63119;51.788;8.824;2023-04-24T08:17:45;98692.22;;;12.33;60.65
74613;BME280;63119;51.788;8.824;2023-04-24T08:20:11;98686.66;;;12.27;61.20
74613;BME280;63119;51.788;8.824;2023-04-24T08:22:39;98690.50;;;12.05;60.96
74613;BME280;63119;51.788;8.824;2023-04-24T08:25:05;98698.47;;;12.05;61.04
74613;BME280;63119;51.788;8.824;2023-04-24T08:27:31;98708.66;;;12.10;60.75
74613;BME280;63119;51.788;8.824;2023-04-24T08:29:56;98699.88;;;11.99;61.73
74613;BME280;63119;51.788;8.824;2023-04-24T08:32:22;98705.19;;;11.90;61.79
74613;BME280;63119;51.788;8.824;2023-04-24T08:34:47;98691.88;;;11.72;61.86
74613;BME280;63119;51.788;8.824;2023-04-24T08:37:12;98701.22;;;11.76;62.04
74613;BME280;63119;51.788;8.824;2023-04-24T08:39:38;98702.47;;;11.72;62.69
74613;BME280;63119;51.788;8.824;2023-04-24T08:42:04;98701.88;;;11.78;61.34
74613;BME280;63119;51.788;8.824;2023-04-24T08:44:34;98699.13;;;11.70;62.56
74613;BME280;63119;51.788;8.824;2023-04-24T08:47:02;98700.09;;;11.79;61.36
74613;BME280;63119;51.788;8.824;2023-04-24T08:49:28;98699.50;;;11.94;61.95
74613;BME280;63119;51.788;8.824;2023-04-24T08:51:54;98698.75;;;12.02;61.52
74613;BME280;63119;51.788;8.824;2023-04-24T08:54:20;98702.72;;;11.88;61.37
74613;BME280;63119;51.788;8.824;2023-04-24T08:56:47;98703.50;;;11.98;61.92
74613;BME280;63119;51.788;8.824;2023-04-24T08:59:14;98707.09;;;12.07;61.24
74613;BME280;63119;51.788;8.824;2023-04-24T09:01:40;98703.78;;;11.95;62.44
74613;BME280;63119;51.788;8.824;2023-04-24T09:04:08;98694.47;;;11.91;61.35
74613;BME280;63119;51.788;8.824;2023-04-24T09:06:34;98700.84;;;11.98;61.20
74613;BME280;63119;51.788;8.824;2023-04-24T09:09:01;98706.56;;;12.03;61.65
74613;BME280;63119;51.788;8.824;2023-04-24T09:11:30;98701.22;;;12.13;60.94
74613;BME280;63119;51.788;8.824;2023-04-24T09:13:56;98697.59;;;12.14;60.88
74613;BME280;63119;51.788;8.824;2023-04-24T09:16:21;98701.94;;;12.15;60.78
74613;BME280;63119;51.788;8.824;2023-04-24T09:18:49;98701.19;;;12.23;61.26
74613;BME280;63119;51.788;8.824;2023-04-24T09:21:14;98706.81;;;12.10;61.93
74613;BME280;63119;51.788;8.824;2023-04-24T09:23:40;98699.50;;;11.94;60.01
74613;BME280;63119;51.788;8.824;2023-04-24T09:26:05;98712.31;;;11.89;60.08
74613;BME280;63119;51.788;8.824;2023-04-24T09:28:39;98713.31;;;11.69;61.55
74613;BME280;63119;51.788;8.824;2023-04-24T09:31:17;98709.53;;;11.62;62.16
74613;BME280;63119;51.788;8.824;2023-04-24T09:34:03;98709.13;;;11.67;62.35
74613;BME280;63119;51.788;8.824;2023-04-24T09:36:32;98713.19;;;11.71;62.22
74613;BME280;63119;51.788;8.824;2023-04-24T09:39:00;98711.25;;;11.82;61.34
74613;BME280;63119;51.788;8.824;2023-04-24T09:41:26;98716.41;;;11.74;61.66
74613;BME280;63119;51.788;8.824;2023-04-24T09:43:56;98705.78;;;11.74;61.06
74613;BME280;63119;51.788;8.824;2023-04-24T09:46:29;98706.06;;;11.81;61.14
74613;BME280;63119;51.788;8.824;2023-04-24T09:48:55;98709.94;;;11.86;61.94
74613;BME280;63119;51.788;8.824;2023-04-24T09:51:33;98713.47;;;11.77;62.77
74613;BME280;63119;51.788;8.824;2023-04-24T09:53:58;98717.22;;;11.65;63.22
74613;BME280;63119;51.788;8.824;2023-04-24T09:56:25;98715.28;;;11.67;62.09
74613;BME280;63119;51.788;8.824;2023-04-24T09:58:51;98724.63;;;11.81;62.21
74613;BME280;63119;51.788;8.824;2023-04-24T10:01:16;98724.06;;;11.77;62.26
74613;BME280;63119;51.788;8.824;2023-04-24T10:03:42;98715.13;;;11.78;62.68
74613;BME280;63119;51.788;8.824;2023-04-24T10:06:11;98717.22;;;11.84;62.69
74613;BME280;63119;51.788;8.824;2023-04-24T10:08:36;98723.56;;;12.11;62.99
74613;BME280;63119;51.788;8.824;2023-04-24T10:11:02;98720.78;;;12.12;60.74
74613;BME280;63119;51.788;8.824;2023-04-24T10:13:28;98717.19;;;12.03;60.59
74613;BME280;63119;51.788;8.824;2023-04-24T10:15:54;98723.63;;;11.91;61.02
74613;BME280;63119;51.788;8.824;2023-04-24T10:18:20;98722.88;;;12.09;61.74
74613;BME280;63119;51.788;8.824;2023-04-24T10:20:46;98717.38;;;12.20;61.94
74613;BME280;63119;51.788;8.824;2023-04-24T10:23:11;98730.28;;;12.05;62.22
74613;BME280;63119;51.788;8.824;2023-04-24T10:25:37;98739.28;;;11.75;62.89
74613;BME280;63119;51.788;8.824;2023-04-24T10:28:03;98741.34;;;11.43;62.71
74613;BME280;63119;51.788;8.824;2023-04-24T10:30:33;98743.72;;;11.46;62.66
74613;BME280;63119;51.788;8.824;2023-04-24T10:33:02;98752.50;;;11.18;64.49
74613;BME280;63119;51.788;8.824;2023-04-24T10:35:30;98756.69;;;11.30;65.23
74613;BME280;63119;51.788;8.824;2023-04-24T10:38:05;98762.69;;;11.51;66.27
74613;BME280;63119;51.788;8.824;2023-04-24T10:40:33;98764.38;;;11.42;66.41
74613;BME280;63119;51.788;8.824;2023-04-24T10:43:02;98768.28;;;11.58;66.32
74613;BME280;63119;51.788;8.824;2023-04-24T10:45:27;98774.97;;;11.42;66.11
74613;BME280;63119;51.788;8.824;2023-04-24T10:48:06;98774.66;;;11.26;65.26
74613;BME280;63119;51.788;8.824;2023-04-24T10:50:52;98779.19;;;10.95;65.35
74613;BME280;63119;51.788;8.824;2023-04-24T10:53:19;98784.34;;;10.87;64.39
74613;BME280;63119;51.788;8.824;2023-04-24T10:55:52;98785.84;;;10.80;64.90
74613;BME280;63119;51.788;8.824;2023-04-24T10:58:23;98796.84;;;10.85;64.94
74613;BME280;63119;51.788;8.824;2023-04-24T11:00:59;98800.63;;;10.83;65.88
74613;BME280;63119;51.788;8.824;2023-04-24T11:03:29;98799.66;;;10.84;65.75
74613;BME280;63119;51.788;8.824;2023-04-24T11:05:59;98807.72;;;10.82;65.48
74613;BME280;63119;51.788;8.824;2023-04-24T11:08:26;98809.88;;;10.68;66.02
74613;BME280;63119;51.788;8.824;2023-04-24T11:11:21;98818.03;;;10.55;66.98
74613;BME280;63119;51.788;8.824;2023-04-24T11:24:24;98824.22;;;10.35;69.08
74613;BME280;63119;51.788;8.824;2023-04-24T11:26:51;98823.97;;;10.38;69.50
74613;BME280;63119;51.788;8.824;2023-04-24T11:29:19;98836.91;;;10.41;71.19
74613;BME280;63119;51.788;8.824;2023-04-24T11:31:45;98831.44;;;10.33;72.19
74613;BME280;63119;51.788;8.824;2023-04-24T11:34:15;98840.59;;;10.29;74.20
74613;BME280;63119;51.788;8.824;2023-04-24T11:36:47;98838.66;;;10.31;74.83
74613;BME280;63119;51.788;8.824;2023-04-24T11:39:13;98846.41;;;10.23;75.67
74613;BME280;63119;51.788;8.824;2023-04-24T11:41:39;98849.50;;;10.28;77.27
74613;BME280;63119;51.788;8.824;2023-04-24T11:44:07;98850.28;;;10.19;77.70
74613;BME280;63119;51.788;8.824;2023-04-24T11:46:33;98854.06;;;10.05;80.15
74613;BME280;63119;51.788;8.824;2023-04-24T11:48:59;98876.25;;;10.14;79.38
74613;BME280;63119;51.788;8.824;2023-04-24T11:51:26;98881.56;;;10.14;80.19
74613;BME280;63119;51.788;8.824;2023-04-24T11:53:52;98879.31;;;10.30;79.67
74613;BME280;63119;51.788;8.824;2023-04-24T11:56:19;98881.81;;;10.31;79.97
74613;BME280;63119;51.788;8.824;2023-04-24T11:58:45;98883.16;;;10.26;80.53
74613;BME280;63119;51.788;8.824;2023-04-24T12:01:10;98881.63;;;10.23;80.53
74613;BME280;63119;51.788;8.824;2023-04-24T12:03:36;98887.28;;;10.19;80.30
74613;BME280;63119;51.788;8.824;2023-04-24T12:06:08;98892.91;;;10.25;80.21
74613;BME280;63119;51.788;8.824;2023-04-24T12:08:34;98908.50;;;10.28;80.65
74613;BME280;63119;51.788;8.824;2023-04-24T12:11:00;98894.50;;;10.17;82.41
74613;BME280;63119;51.788;8.824;2023-04-24T12:13:26;98909.41;;;10.18;81.93
74613;BME280;63119;51.788;8.824;2023-04-24T12:15:52;98902.88;;;10.22;82.96
74613;BME280;63119;51.788;8.824;2023-04-24T12:18:17;98925.03;;;10.10;81.94
74613;BME280;63119;51.788;8.824;2023-04-24T12:20:43;98927.41;;;10.13;83.46
74613;BME280;63119;51.788;8.824;2023-04-24T12:23:08;98939.97;;;10.00;82.19
74613;BME280;63119;51.788;8.824;2023-04-24T12:25:33;98948.31;;;9.73;80.80
74613;BME280;63119;51.788;8.824;2023-04-24T12:30:28;98966.97;;;9.49;80.45
74613;BME280;63119;51.788;8.824;2023-04-24T12:32:57;98985.22;;;9.52;80.26
74613;BME280;63119;51.788;8.824;2023-04-24T12:35:24;98975.28;;;9.45;78.94
74613;BME280;63119;51.788;8.824;2023-04-24T12:37:49;98998.81;;;9.48;81.01
74613;BME280;63119;51.788;8.824;2023-04-24T12:40:16;99005.63;;;9.50;80.03
74613;BME280;63119;51.788;8.824;2023-04-24T12:42:49;99001.66;;;9.56;80.12
74613;BME280;63119;51.788;8.824;2023-04-24T12:45:15;99006.44;;;9.73;79.95
74613;BME280;63119;51.788;8.824;2023-04-24T12:47:41;99013.53;;;9.61;79.14
74613;BME280;63119;51.788;8.824;2023-04-24T12:50:08;99011.63;;;9.63;79.70
74613;BME280;63119;51.788;8.824;2023-04-24T12:52:34;99013.19;;;9.66;80.18
74613;BME280;63119;51.788;8.824;2023-04-24T12:55:00;99016.56;;;9.57;80.53
74613;BME280;63119;51.788;8.824;2023-04-24T12:57:27;99022.91;;;9.65;80.60
74613;BME280;63119;51.788;8.824;2023-04-24T12:59:58;99026.16;;;9.69;81.69
74613;BME280;63119;51.788;8.824;2023-04-24T13:02:24;99025.44;;;9.78;81.41
74613;BME280;63119;51.788;8.824;2023-04-24T13:04:51;99023.28;;;9.72;81.84
74613;BME280;63119;51.788;8.824;2023-04-24T13:07:16;99025.56;;;9.65;82.06